x

Western Caribbean - 195 Nm Wsw Of Negril Jamiaca (42057) Wave Buoy

2:50 - Sat 22nd Nov 2014 All times are UTC.

  • Sig Wave height 3.9ft
  • Swell Direction
  • Peak Period 8s
  • Average Period 5s
  • Wind
    16mph, 18mph gusts
  • Sea Temp 83°f
  • Air Temp 83°f
  • Sea Pressure 1015.3mb

More Historic Weather Station data

Upgrade to MSW Pro to gain access to the past 30 days of data for over 8000 Wavebouys and Weather Stations around the globe.

Join Pro

Comparision Forecast

View Surf forecast
   
sam. 11/22 2:50 4ft 8s 5s 16 18 mph 1015.3mb 83f 83f
1:50 4ft 6s 5s 16 18 mph 1014.6mb 83f 83f
12:50 3.5ft 7s 5s 13 18 mph 1014.3mb 83f 82f
ven. 11/21 11:50 4ft 7s 5s 13 16 mph 1013.9mb 83f 82f
10:50 4ft 6s 5s 9 11 mph 1013.6mb 83f 82f
9:50 4ft 7s 5s 13 16 mph 1013.1mb 83f 83f
8:50 4.5ft 6s 5s 7 16 mph 1013.2mb 83f 81f
7:50 4ft 6s 5s 13 16 mph 1013.2mb 83f 83f
6:50 3.5ft 6s 5s 11 13 mph 1013.7mb 83f 83f
5:50 4ft 6s 5s 11 16 mph 1014.5mb 83f 83f
4:50 4ft 5s 5s 13 16 mph 1015.2mb 83f 83f
3:50 4ft 8s 5s 13 16 mph 1015.7mb 83f 83f
2:50 4ft 5s 5s 11 13 mph 1015.8mb 83f 83f
1:50 4ft 7s 5s 13 16 mph 1015.5mb 83f 83f
12:50 4ft 6s 5s 13 16 mph 1014.7mb 83f 83f
11:50 4.5ft 8s 5s 13 16 mph 1013.9mb 83f 82f
10:50 4.5ft 7s 5s 13 16 mph 1013.5mb 83f 83f
9:50 4ft 7s 5s 13 16 mph 1012.9mb 83f 83f
8:50 4.5ft 8s 5s 13 16 mph 1012.7mb 83f 83f
7:50 4ft 7s 5s 11 13 mph 1012.9mb 83f 83f
6:50 4.5ft 8s 5s 13 16 mph 1013.4mb 83f 83f
5:50 4.5ft 7s 5s 16 18 mph 1013.7mb 83f 83f
4:50 4.5ft 7s 5s 13 16 mph 1014.4mb 83f 83f
3:50 4.5ft 8s 5s 13 18 mph 1014.5mb 83f 83f
2:50 4.5ft 8s 5s 13 16 mph 1014.5mb 83f 83f
1:50 4.5ft 7s 5s 13 16 mph 1014.1mb 83f 83f
12:50 4.5ft 7s 5s 13 16 mph 1013.6mb 83f 83f
jeu. 11/20 11:50 4.5ft 7s 5s 13 16 mph 1012.8mb 83f 83f
10:50 4.5ft 7s 5s 13 16 mph 1012.2mb 83f 83f
9:50 4.5ft 8s 5s 16 18 mph 1012mb 83f 83f
8:50 4.5ft 8s 5s 11 16 mph 1011.9mb 83f 82f
7:50 4.5ft 8s 5s 13 18 mph 1012mb 83f 82f
6:50 4.5ft 7s 5s 13 16 mph 1012.8mb 83f 82f
5:50 4.5ft 6s 5s 16 18 mph 1013.5mb 83f 82f
4:50 5ft 7s 5s 11 13 mph 1014.6mb 83f 82f
3:50 5ft 8s 5s 13 16 mph 1015.3mb 83f 83f
2:50 5ft 7s 6s 13 16 mph 1015.4mb 83f 83f
1:50 5ft 6s 5s 16 18 mph 1014.8mb 83f 83f
12:50 5ft 7s 6s 16 18 mph 1013.9mb 83f 82f
11:50 5ft 7s 5s 16 18 mph 1013.3mb 83f 82f
10:50 5ft 10s 6s 18 20 mph 1012.8mb 83f 82f
9:50 5ft 7s 6s 16 18 mph 1012.6mb 83f 82f
8:50 6ft 8s 6s 16 18 mph 1012.7mb 83f 82f
7:50 6ft 8s 6s 13 16 mph 1013.2mb 83f 82f
6:50 6ft 10s 6s 16 18 mph 1013.7mb 83f 82f
5:50 6ft 9s 6s 16 18 mph 1014.2mb 83f 83f
4:50 6ft 8s 6s 16 18 mph 1014.7mb 83f 83f
3:50 6ft 8s 6s 16 18 mph 1015.2mb 83f 83f
2:50 6ft 10s 6s 18 20 mph 1015mb 83f 83f
1:50 5.5ft 8s 6s 18 20 mph 1014.7mb 83f 83f
12:50 5.5ft 7s 6s 18 20 mph 1014mb 83f 83f
mer. 11/19 11:50 5ft 6s 6s 16 20 mph 1013.7mb 83f 83f
10:50 5ft 8s 5s 16 20 mph 1013.3mb 83f 83f
9:50 5ft 7s 5s 16 20 mph 1012.7mb 83f 83f
8:50 5.5ft 7s 6s 16 18 mph 1012.8mb 83f 84f
7:50 5ft 7s 5s 16 20 mph 1013mb 83f 83f
6:50 5.5ft 8s 5s 18 20 mph 1013.4mb 83f 84f
5:50 6ft 8s 6s 18 20 mph 1014.1mb 83f 84f
4:50 6ft 6s 6s 18 20 mph 1015.3mb 83f 84f
3:50 5.5ft 7s 6s 18 22 mph 1015.5mb 83f 84f
2:50 6ft 6s 5s 20 22 mph 1015.7mb 83f 84f
1:50 6ft 7s 6s 20 25 mph 1014.9mb 83f 84f
12:50 6ft 8s 6s 18 22 mph 1014.5mb 83f 83f
11:50 6ft 8s 6s 16 20 mph 1013.6mb 83f 83f
10:50 6ft 8s 5s 18 20 mph 1013.4mb 83f 83f
9:50 6ft 7s 6s 18 20 mph 1012.7mb 83f 83f
8:50 6ft 7s 6s 16 20 mph 1012.9mb 83f 82f
7:50 6ft 8s 6s 20 22 mph 1013.1mb 83f 83f
6:50 6ft 7s 6s 18 20 mph 1013.6mb 83f 83f
5:50 6ft 7s 6s 20 25 mph 1013.9mb 83f 83f
4:50 6ft 7s 6s 20 25 mph 1014.3mb 83f 84f
3:50 6ft 7s 5s 20 25 mph 1014.9mb 83f 80f
2:50 6ft 8s 6s 22 25 mph 1014.8mb 83f 83f
1:50 6ft 8s 6s 16 20 mph 1015mb 84f 83f
12:50 6ft 7s 5s 20 22 mph 1013.8mb 84f 82f
mar. 11/18 11:50 6ft 7s 6s 20 25 mph 1013.1mb 84f 82f
10:50 5.5ft 9s 6s 18 22 mph 1012.9mb 84f 83f
9:50 6ft 9s 5s 18 22 mph 1012.4mb 84f 80f
8:50 6ft 8s 5s 20 25 mph 1011.8mb 84f 82f
7:50 6ft 9s 5s 18 22 mph 1011.8mb 84f 81f
6:50 5.5ft 6s 5s 20 22 mph 1012.4mb 84f 83f
5:50 6ft 8s 6s 18 20 mph 1013.4mb 84f 84f
4:50 5.5ft 6s 6s 18 20 mph 1014.2mb 84f 83f
3:50 6ft 7s 6s 16 18 mph 1014.8mb 84f 83f
2:50 5ft 8s 5s 18 22 mph 1014.6mb 83f 83f
1:50 5.5ft 6s 5s 18 22 mph 1014.3mb 83f 84f
12:50 5.5ft 9s 6s 13 16 mph 1013.7mb 83f 83f
11:50 6ft 8s 6s 16 22 mph 1013.5mb 83f 81f
10:50 5.5ft 8s 6s 13 18 mph 1012.9mb 83f 83f
9:50 6ft 8s 6s 13 16 mph 1012.4mb 83f 83f
8:50 6ft 8s 6s 13 18 mph 1012mb 84f 82f
7:50 5ft 8s 6s 16 18 mph 1012mb 84f 82f
6:50 5.5ft 8s 6s 11 16 mph 1012.8mb 84f 80f
5:50 6ft 8s 6s 16 18 mph 1013mb 84f 83f
4:50 5ft 8s 6s 16 18 mph 1013.6mb 84f 83f
3:50 6ft 8s 6s 16 18 mph 1014.3mb 84f 83f